Time;durP1;ratioP1;P1;durP2;ratioP2;P2;SDS_P1;SDS_P2;PMS_P1;PMS_P2;Temp;Humidity;BMP_temperature;BMP_pressure;BME280_temperature;BME280_humidity;BME280_pressure;Samples;Min_cycle;Max_cycle;Signal;HPM_P1;HPM_P2
2021/07/10 00:00:10;;;;;;;2.30;1.60;;;15.00;98.00;;;;;;5113739;28;20824;-64
2021/07/10 00:02:37;;;;;;;2.43;1.53;;;15.10;98.00;;;;;;5113433;28;20458;-65
2021/07/10 00:05:05;;;;;;;1.20;1.10;;;15.10;98.00;;;;;;5113338;28;20496;-64
2021/07/10 00:07:33;;;;;;;1.40;1.40;;;15.00;98.00;;;;;;5113542;28;20547;-66
2021/07/10 00:10:00;;;;;;;2.17;1.40;;;15.10;98.00;;;;;;5113452;28;20464;-64
2021/07/10 00:12:28;;;;;;;2.10;1.67;;;15.10;98.00;;;;;;5113276;28;20559;-65
2021/07/10 00:14:56;;;;;;;1.43;1.43;;;15.30;98.00;;;;;;5113365;28;20482;-65
2021/07/10 00:17:25;;;;;;;2.07;1.67;;;15.50;98.00;;;;;;5113190;28;20512;-65
2021/07/10 00:19:53;;;;;;;1.20;1.17;;;15.50;98.00;;;;;;5111899;28;20572;-64
2021/07/10 00:22:20;;;;;;;2.03;1.47;;;15.40;98.00;;;;;;5113015;28;20470;-64
2021/07/10 00:24:47;;;;;;;2.10;1.93;;;15.30;98.00;;;;;;5113008;28;20898;-64
2021/07/10 00:27:14;;;;;;;1.20;1.10;;;15.20;98.00;;;;;;5112870;28;20454;-65
2021/07/10 00:29:41;;;;;;;1.70;1.30;;;15.30;98.00;;;;;;5112971;28;20515;-65
2021/07/10 00:32:10;;;;;;;1.40;1.20;;;15.50;98.00;;;;;;5113040;28;20559;-65
2021/07/10 00:34:37;;;;;;;2.20;1.60;;;15.60;98.00;;;;;;5112794;28;20458;-64
2021/07/10 00:37:05;;;;;;;2.73;1.40;;;15.70;98.00;;;;;;5112619;28;21031;-66
2021/07/10 00:39:32;;;;;;;1.40;1.40;;;15.60;98.00;;;;;;5112458;28;20517;-63
2021/07/10 00:41:59;;;;;;;1.27;1.13;;;15.60;98.00;;;;;;5111726;28;20512;-64
2021/07/10 00:44:27;;;;;;;1.30;1.30;;;15.50;98.00;;;;;;5112625;28;20764;-65
2021/07/10 00:46:54;;;;;;;1.60;1.50;;;15.50;98.00;;;;;;5112720;28;20487;-64
2021/07/10 00:49:22;;;;;;;1.77;1.50;;;15.50;98.00;;;;;;5112522;28;20484;-65
2021/07/10 00:51:49;;;;;;;1.63;1.50;;;15.50;98.00;;;;;;5112719;28;20493;-63
2021/07/10 00:54:16;;;;;;;1.57;1.47;;;15.50;98.00;;;;;;5112453;28;20458;-64
2021/07/10 00:56:45;;;;;;;1.50;1.30;;;15.40;98.00;;;;;;5112599;28;20501;-65
2021/07/10 00:59:14;;;;;;;1.50;1.43;;;15.50;98.00;;;;;;5112295;28;20846;-64
2021/07/10 01:01:43;;;;;;;3.40;1.80;;;15.60;98.00;;;;;;5112476;28;20494;-64
2021/07/10 01:04:10;;;;;;;2.50;1.70;;;15.60;98.00;;;;;;5112220;28;20454;-64
2021/07/10 01:06:39;;;;;;;1.47;1.43;;;15.50;98.00;;;;;;5112403;27;20548;-65
2021/07/10 01:09:07;;;;;;;2.43;1.70;;;15.50;98.00;;;;;;5111209;28;20458;-65
2021/07/10 01:11:45;;;;;;;1.43;1.40;;;15.50;98.00;;;;;;5112444;28;20828;-64
2021/07/10 01:14:12;;;;;;;1.50;1.30;;;15.60;98.00;;;;;;5111893;28;20463;-64
2021/07/10 01:16:41;;;;;;;1.43;1.37;;;15.60;98.00;;;;;;5112114;28;20498;-66
2021/07/10 01:19:08;;;;;;;1.70;1.37;;;15.40;98.00;;;;;;5111644;28;20494;-64
2021/07/10 01:21:36;;;;;;;2.17;1.53;;;15.30;98.00;;;;;;5111978;28;20519;-64
2021/07/10 01:24:04;;;;;;;2.70;1.30;;;15.10;98.00;;;;;;5112153;28;20873;-64
2021/07/10 01:26:31;;;;;;;1.33;1.20;;;15.00;98.00;;;;;;5111784;28;20543;-66
2021/07/10 01:28:58;;;;;;;1.50;1.20;;;15.00;98.00;;;;;;5110746;28;20559;-64
2021/07/10 01:31:25;;;;;;;1.50;1.30;;;15.10;98.00;;;;;;5111769;28;20843;-66
2021/07/10 01:33:52;;;;;;;1.20;1.10;;;15.20;98.00;;;;;;5111963;28;20836;-66
2021/07/10 01:36:19;;;;;;;2.00;1.80;;;15.40;98.00;;;;;;5111623;28;20809;-64
2021/07/10 01:38:50;;;;;;;1.50;1.27;;;15.30;98.00;;;;;;5111640;28;20552;-64
2021/07/10 01:41:17;;;;;;;1.40;1.27;;;15.40;98.00;;;;;;5111163;28;20466;-64
2021/07/10 01:43:45;;;;;;;2.60;1.70;;;15.30;98.00;;;;;;5111590;28;20518;-64
2021/07/10 01:46:12;;;;;;;2.53;1.93;;;15.20;98.00;;;;;;5111811;28;20888;-65
2021/07/10 01:48:44;;;;;;;3.20;1.47;;;15.20;98.00;;;;;;5111659;28;20484;-64
2021/07/10 01:51:11;;;;;;;1.30;1.27;;;15.40;98.00;;;;;;5111484;28;20458;-64
2021/07/10 01:53:38;;;;;;;1.40;1.20;;;15.20;98.00;;;;;;5111575;28;20457;-64
2021/07/10 01:56:08;;;;;;;1.40;1.30;;;15.20;98.00;;;;;;5111535;28;20503;-64
2021/07/10 01:58:35;;;;;;;2.70;1.50;;;15.20;98.00;;;;;;5110013;28;20569;-65
2021/07/10 02:01:01;;;;;;;2.10;1.50;;;15.20;98.00;;;;;;5111493;28;20726;-65
2021/07/10 02:03:28;;;;;;;1.40;1.13;;;15.30;98.00;;;;;;5111320;28;20888;-65
2021/07/10 02:05:55;;;;;;;1.30;1.23;;;15.10;98.00;;;;;;5111769;28;20571;-63
2021/07/10 02:08:22;;;;;;;2.13;1.20;;;14.90;98.00;;;;;;5111667;28;20452;-65
2021/07/10 02:10:49;;;;;;;1.90;1.43;;;14.80;98.00;;;;;;5111255;28;20490;-64
2021/07/10 02:13:18;;;;;;;1.30;1.00;;;14.60;98.00;;;;;;5111350;28;20500;-65
2021/07/10 02:15:45;;;;;;;1.63;1.60;;;14.60;98.00;;;;;;5111483;28;20538;-66
2021/07/10 02:18:12;;;;;;;1.83;1.20;;;14.60;98.00;;;;;;5112376;28;21055;-65
2021/07/10 02:20:40;;;;;;;1.90;1.63;;;14.60;98.00;;;;;;5112052;28;20561;-63
2021/07/10 02:23:07;;;;;;;1.20;1.10;;;14.60;98.00;;;;;;5111970;28;20460;-65
2021/07/10 02:25:34;;;;;;;1.20;1.13;;;14.70;98.00;;;;;;5112804;28;20558;-64
2021/07/10 02:28:01;;;;;;;1.43;1.33;;;14.70;98.00;;;;;;5115795;27;20501;-64
2021/07/10 02:30:32;;;;;;;1.70;1.60;;;14.70;98.00;;;;;;5115478;28;20480;-65
2021/07/10 02:33:00;;;;;;;2.57;1.57;;;14.70;98.00;;;;;;5115662;28;20484;-65
2021/07/10 02:35:28;;;;;;;1.70;1.40;;;14.80;98.00;;;;;;5115633;28;20492;-64
2021/07/10 02:37:56;;;;;;;2.73;1.40;;;15.00;98.00;;;;;;5115476;28;20530;-65
2021/07/10 02:40:23;;;;;;;1.93;1.40;;;14.90;98.00;;;;;;5115331;28;20514;-65
2021/07/10 02:42:54;;;;;;;3.30;1.50;;;14.90;98.00;;;;;;5115264;28;20459;-64
2021/07/10 02:45:21;;;;;;;1.53;1.50;;;14.80;98.00;;;;;;5115232;28;20454;-63
2021/07/10 02:47:52;;;;;;;1.77;1.13;;;14.70;98.00;;;;;;5115151;28;20479;-66
2021/07/10 02:50:21;;;;;;;1.30;1.27;;;14.70;98.00;;;;;;5115035;28;20497;-65
2021/07/10 02:52:49;;;;;;;1.40;1.30;;;14.70;98.00;;;;;;5115060;28;20956;-65
2021/07/10 02:55:16;;;;;;;1.20;1.10;;;14.60;98.00;;;;;;5114916;28;20483;-64
2021/07/10 02:57:43;;;;;;;1.37;1.20;;;14.60;98.00;;;;;;5115039;28;20952;-64
2021/07/10 03:00:12;;;;;;;1.80;1.50;;;14.60;98.00;;;;;;5114783;28;20908;-65
2021/07/10 03:02:42;;;;;;;1.40;1.20;;;14.70;98.00;;;;;;5114810;28;20885;-64
2021/07/10 03:05:11;;;;;;;2.30;1.40;;;14.60;98.00;;;;;;5114589;28;20827;-64
2021/07/10 03:07:39;;;;;;;1.30;1.17;;;14.50;98.00;;;;;;5114749;28;20492;-63
2021/07/10 03:10:07;;;;;;;1.53;1.10;;;14.50;98.00;;;;;;5114589;28;20458;-64
2021/07/10 03:12:34;;;;;;;1.30;1.10;;;14.40;98.00;;;;;;5114818;28;20487;-65
2021/07/10 03:15:01;;;;;;;2.07;1.30;;;14.40;98.00;;;;;;5114498;28;20940;-64
2021/07/10 03:17:28;;;;;;;1.33;1.20;;;14.40;98.00;;;;;;5114526;28;20803;-64
2021/07/10 03:19:55;;;;;;;1.13;1.10;;;14.50;98.00;;;;;;5114418;28;20517;-64
2021/07/10 03:22:23;;;;;;;1.10;0.97;;;14.50;98.00;;;;;;5113544;28;20462;-65
2021/07/10 03:24:54;;;;;;;1.60;1.53;;;14.50;98.00;;;;;;5113365;28;20493;-64
2021/07/10 03:27:21;;;;;;;1.93;1.60;;;14.40;98.00;;;;;;5113327;28;20525;-65
2021/07/10 03:29:49;;;;;;;1.80;1.50;;;14.40;98.00;;;;;;5112987;28;20456;-64
2021/07/10 03:32:16;;;;;;;1.20;1.10;;;14.50;98.00;;;;;;5113175;28;20575;-66
2021/07/10 03:34:43;;;;;;;2.57;1.60;;;14.60;98.00;;;;;;5112878;28;20458;-64
2021/07/10 03:37:10;;;;;;;2.00;1.33;;;14.60;98.00;;;;;;5112632;28;20458;-66
2021/07/10 03:39:39;;;;;;;3.13;1.50;;;14.70;98.00;;;;;;5112735;28;20515;-65
2021/07/10 03:42:06;;;;;;;1.80;1.20;;;14.70;98.00;;;;;;5112939;28;20467;-64
2021/07/10 03:44:33;;;;;;;1.77;1.40;;;14.60;98.00;;;;;;5112657;28;20489;-65
2021/07/10 03:47:00;;;;;;;1.60;1.43;;;14.50;98.00;;;;;;5112895;28;20469;-64
2021/07/10 03:49:28;;;;;;;1.20;1.10;;;14.50;98.00;;;;;;5112767;28;20448;-64
2021/07/10 03:51:55;;;;;;;1.20;1.20;;;14.50;98.00;;;;;;5112731;28;20820;-64
2021/07/10 03:54:22;;;;;;;1.20;1.10;;;14.40;98.00;;;;;;5112760;28;20533;-64
2021/07/10 03:56:51;;;;;;;1.70;1.23;;;14.50;98.00;;;;;;5112714;28;20484;-64
2021/07/10 03:59:18;;;;;;;1.37;1.20;;;14.40;98.00;;;;;;5112668;28;20486;-64
2021/07/10 04:01:45;;;;;;;1.93;1.30;;;14.60;98.00;;;;;;5112516;28;20942;-65
2021/07/10 04:04:13;;;;;;;1.67;1.40;;;14.70;98.00;;;;;;5112557;28;20462;-64
2021/07/10 04:06:40;;;;;;;2.50;1.50;;;14.80;98.00;;;;;;5112432;28;20512;-65
2021/07/10 04:09:07;;;;;;;1.43;1.20;;;14.70;98.00;;;;;;5112271;28;21041;-64
2021/07/10 04:11:35;;;;;;;2.47;1.40;;;14.60;98.00;;;;;;5112232;28;20492;-65
2021/07/10 04:14:03;;;;;;;1.40;1.37;;;14.70;98.00;;;;;;5112377;28;20531;-64
2021/07/10 04:16:30;;;;;;;1.30;1.20;;;14.80;98.00;;;;;;5112300;28;20489;-64
2021/07/10 04:18:59;;;;;;;1.37;1.13;;;14.80;98.00;;;;;;5112295;28;20520;-65
2021/07/10 04:21:26;;;;;;;1.30;1.30;;;14.90;98.00;;;;;;5072196;28;1131170;-64
2021/07/10 04:23:54;;;;;;;1.20;1.00;;;14.90;98.00;;;;;;5113032;28;20241;-64
2021/07/10 04:26:21;;;;;;;1.10;1.10;;;14.90;98.00;;;;;;5111580;28;20517;-65
2021/07/10 04:28:48;;;;;;;1.20;1.20;;;15.00;98.00;;;;;;5112925;28;21045;-65
2021/07/10 04:31:16;;;;;;;3.00;1.30;;;15.00;98.00;;;;;;5111897;28;21012;-65
2021/07/10 04:33:43;;;;;;;1.20;1.20;;;15.00;98.00;;;;;;5113164;28;20489;-65
2021/07/10 04:36:10;;;;;;;1.87;1.30;;;15.10;98.00;;;;;;5113049;28;20462;-64
2021/07/10 04:38:38;;;;;;;1.30;1.10;;;15.20;98.00;;;;;;5112729;28;20453;-64
2021/07/10 04:41:06;;;;;;;1.30;1.10;;;15.20;98.00;;;;;;5112860;28;20509;-64
2021/07/10 04:43:34;;;;;;;1.77;1.40;;;15.10;98.00;;;;;;5112653;28;20461;-64
2021/07/10 04:46:02;;;;;;;1.20;1.10;;;15.20;98.00;;;;;;5112911;28;20489;-64
2021/07/10 04:48:30;;;;;;;1.53;1.43;;;15.20;98.00;;;;;;5111968;28;20946;-65
2021/07/10 04:51:00;;;;;;;1.70;1.60;;;15.10;98.00;;;;;;5112661;28;20482;-64
2021/07/10 04:53:27;;;;;;;1.20;1.20;;;15.10;98.00;;;;;;5111319;28;20453;-64
2021/07/10 04:55:54;;;;;;;2.13;1.50;;;15.30;98.00;;;;;;5112523;28;20498;-64
2021/07/10 04:58:21;;;;;;;1.73;1.40;;;15.20;98.00;;;;;;5112617;28;20489;-65
2021/07/10 05:00:49;;;;;;;1.50;1.20;;;15.20;98.00;;;;;;5112434;28;20517;-64
2021/07/10 05:03:17;;;;;;;2.33;1.30;;;15.20;98.00;;;;;;5112302;28;20462;-64
2021/07/10 05:05:46;;;;;;;1.20;1.20;;;15.10;98.00;;;;;;5112725;28;20457;-63
2021/07/10 05:08:13;;;;;;;1.17;1.10;;;15.00;98.00;;;;;;5112287;28;20480;-64
2021/07/10 05:10:40;;;;;;;2.70;1.10;;;15.00;98.00;;;;;;5112357;28;20452;-64
2021/07/10 05:13:09;;;;;;;1.30;1.30;;;14.90;98.00;;;;;;5112346;28;20452;-64
2021/07/10 05:15:36;;;;;;;1.47;1.43;;;14.90;98.00;;;;;;5112573;28;20456;-63
2021/07/10 05:18:04;;;;;;;1.77;1.43;;;14.80;98.00;;;;;;5112227;28;20461;-64
2021/07/10 05:20:31;;;;;;;1.87;1.43;;;14.90;98.00;;;;;;5112014;28;20918;-64
2021/07/10 05:23:00;;;;;;;1.30;1.27;;;14.80;98.00;;;;;;5112047;28;20489;-64
2021/07/10 05:25:28;;;;;;;1.30;1.30;;;14.90;98.00;;;;;;5110597;28;20863;-64
2021/07/10 05:27:55;;;;;;;1.40;1.20;;;15.10;98.00;;;;;;5112104;28;20501;-64
2021/07/10 05:30:22;;;;;;;1.73;1.40;;;15.20;98.00;;;;;;5111895;28;20958;-64
2021/07/10 05:32:50;;;;;;;1.77;1.40;;;15.20;98.00;;;;;;5112066;28;20457;-64
2021/07/10 05:35:19;;;;;;;1.30;1.10;;;15.20;98.00;;;;;;5111850;28;20513;-65
2021/07/10 05:37:47;;;;;;;1.10;1.10;;;15.00;98.00;;;;;;5111758;28;20458;-66
2021/07/10 05:40:16;;;;;;;1.40;1.20;;;15.00;98.00;;;;;;5111427;28;20540;-63
2021/07/10 05:42:43;;;;;;;2.10;1.30;;;15.20;98.00;;;;;;5111899;28;20450;-65
2021/07/10 05:45:12;;;;;;;1.10;1.00;;;15.30;98.00;;;;;;5111707;28;20461;-64
2021/07/10 05:47:39;;;;;;;2.20;1.10;;;15.40;98.00;;;;;;5110415;28;20458;-64
2021/07/10 05:50:07;;;;;;;2.30;1.23;;;15.40;98.00;;;;;;5111477;28;20485;-63
2021/07/10 05:52:35;;;;;;;1.20;1.20;;;15.50;98.00;;;;;;5111488;28;20472;-66
2021/07/10 05:55:11;;;;;;;1.53;1.50;;;15.70;98.00;;;;;;5111480;28;20481;-63
2021/07/10 05:57:40;;;;;;;2.03;1.50;;;15.80;98.00;;;;;;5111717;28;20456;-64
2021/07/10 06:00:09;;;;;;;1.10;1.10;;;15.90;98.00;;;;;;5111157;28;20548;-65
2021/07/10 06:02:37;;;;;;;4.60;1.30;;;15.90;98.00;;;;;;5111497;28;20874;-63
2021/07/10 06:05:06;;;;;;;1.40;1.10;;;15.80;98.00;;;;;;5111267;28;20458;-64
2021/07/10 06:07:33;;;;;;;1.30;1.20;;;15.80;98.00;;;;;;5111399;28;20457;-65
2021/07/10 06:10:01;;;;;;;1.30;1.20;;;16.00;98.00;;;;;;5111327;28;20481;-65
2021/07/10 06:12:28;;;;;;;1.20;1.10;;;16.10;98.00;;;;;;5111324;28;21029;-64
2021/07/10 06:14:56;;;;;;;1.77;1.37;;;16.00;98.00;;;;;;5111178;28;20520;-63
2021/07/10 06:17:26;;;;;;;1.40;1.20;;;16.10;98.00;;;;;;5111350;28;20923;-65
2021/07/10 06:19:53;;;;;;;1.60;1.50;;;16.10;98.00;;;;;;5111193;28;20488;-65
2021/07/10 06:22:20;;;;;;;1.30;1.23;;;16.20;98.00;;;;;;5111024;28;20498;-64
2021/07/10 06:24:47;;;;;;;2.80;1.67;;;16.20;98.00;;;;;;5111386;28;20840;-64
2021/07/10 06:27:15;;;;;;;1.37;1.20;;;16.30;98.00;;;;;;5111296;28;21001;-65
2021/07/10 06:29:43;;;;;;;1.60;1.30;;;16.40;98.00;;;;;;5111172;28;20459;-63
2021/07/10 06:32:12;;;;;;;1.53;1.20;;;16.20;98.00;;;;;;5111296;28;20469;-66
2021/07/10 06:34:39;;;;;;;1.60;1.30;;;16.10;98.00;;;;;;5111423;28;20462;-64
2021/07/10 06:37:07;;;;;;;1.30;1.27;;;16.30;98.00;;;;;;5111156;28;20494;-63
2021/07/10 06:39:34;;;;;;;1.57;1.33;;;16.50;98.00;;;;;;5111036;28;20522;-64
2021/07/10 06:42:01;;;;;;;1.20;1.00;;;16.60;98.00;;;;;;5109637;28;20455;-64
2021/07/10 06:44:28;;;;;;;1.93;1.33;;;16.70;98.00;;;;;;5110951;28;20496;-66
2021/07/10 06:46:55;;;;;;;1.50;1.37;;;16.80;98.00;;;;;;5111064;28;20493;-65
2021/07/10 06:49:23;;;;;;;1.40;1.17;;;16.70;98.00;;;;;;5111067;28;20450;-65
2021/07/10 06:51:50;;;;;;;1.70;1.43;;;16.90;98.00;;;;;;5110953;28;21081;-64
2021/07/10 06:54:20;;;;;;;1.70;1.60;;;17.00;98.00;;;;;;5111039;28;21047;-64
2021/07/10 06:56:47;;;;;;;3.17;1.97;;;17.00;98.00;;;;;;5109408;28;20465;-66
2021/07/10 06:59:15;;;;;;;1.30;1.27;;;17.00;98.00;;;;;;5110743;28;20486;-64
2021/07/10 07:01:42;;;;;;;1.50;1.23;;;17.10;98.00;;;;;;5110911;28;20501;-64
2021/07/10 07:04:09;;;;;;;2.17;1.17;;;17.20;98.00;;;;;;5110802;28;20466;-65
2021/07/10 07:06:38;;;;;;;1.37;1.17;;;17.30;98.00;;;;;;5111004;28;20458;-65
2021/07/10 07:09:06;;;;;;;1.40;1.30;;;17.20;98.00;;;;;;5110444;28;20566;-65
2021/07/10 07:11:34;;;;;;;2.17;1.60;;;17.20;98.00;;;;;;5110974;28;20482;-64
2021/07/10 07:14:01;;;;;;;1.43;1.37;;;17.20;98.00;;;;;;5113232;28;20490;-64
2021/07/10 07:16:28;;;;;;;1.70;1.57;;;17.30;98.00;;;;;;5114715;28;20478;-65
2021/07/10 07:18:55;;;;;;;2.13;1.73;;;17.60;98.00;;;;;;5113273;28;20486;-64
2021/07/10 07:21:22;;;;;;;1.50;1.30;;;17.60;98.00;;;;;;5108471;28;20554;-65
2021/07/10 07:23:50;;;;;;;1.80;1.57;;;17.70;98.00;;;;;;5098349;28;20943;-65
2021/07/10 07:26:19;;;;;;;2.80;1.73;;;17.80;98.00;;;;;;5096181;28;20522;-64
2021/07/10 07:28:46;;;;;;;1.80;1.23;;;17.80;98.00;;;;;;5108873;28;20462;-64
2021/07/10 07:31:13;;;;;;;1.97;1.77;;;17.90;98.00;;;;;;5110207;28;20463;-65
2021/07/10 07:33:40;;;;;;;1.50;1.33;;;17.90;98.00;;;;;;5108609;28;21823;-65
2021/07/10 07:36:08;;;;;;;3.53;1.40;;;18.00;98.00;;;;;;5107460;28;20455;-64
2021/07/10 07:38:36;;;;;;;1.63;1.60;;;18.10;98.00;;;;;;5094060;28;21016;-65
2021/07/10 07:41:06;;;;;;;2.10;1.50;;;18.20;98.00;;;;;;5106756;28;20487;-64
2021/07/10 07:43:33;;;;;;;1.70;1.60;;;18.30;98.00;;;;;;5101322;28;20456;-64
2021/07/10 07:46:00;;;;;;;1.70;1.40;;;18.50;98.00;;;;;;5093493;28;20876;-66
2021/07/10 07:48:27;;;;;;;2.33;1.60;;;18.70;98.00;;;;;;5093744;28;20516;-66
2021/07/10 07:50:54;;;;;;;1.30;1.30;;;18.90;98.00;;;;;;5093470;28;20496;-64
2021/07/10 07:53:21;;;;;;;2.70;1.73;;;19.10;98.00;;;;;;5093870;28;20507;-65
2021/07/10 07:55:48;;;;;;;1.70;1.57;;;19.20;98.00;;;;;;5092825;28;20878;-65
2021/07/10 07:58:16;;;;;;;1.67;1.23;;;19.40;98.00;;;;;;5093440;28;20483;-66
2021/07/10 08:00:44;;;;;;;1.50;1.33;;;19.60;98.00;;;;;;5093290;28;20575;-65
2021/07/10 08:03:11;;;;;;;1.30;1.27;;;19.70;98.00;;;;;;5093446;28;20539;-64
2021/07/10 08:05:38;;;;;;;1.90;1.70;;;19.90;98.00;;;;;;5093293;28;20486;-65
2021/07/10 08:08:06;;;;;;;1.63;1.53;;;20.10;98.00;;;;;;5093300;28;20494;-66
2021/07/10 08:10:33;;;;;;;1.53;1.50;;;20.20;98.00;;;;;;5093186;28;20513;-65
2021/07/10 08:13:00;;;;;;;2.43;1.83;;;20.50;98.00;;;;;;5093246;28;20465;-65
2021/07/10 08:15:32;;;;;;;1.70;1.60;;;20.60;98.00;;;;;;5093055;28;20484;-65
2021/07/10 08:17:59;;;;;;;1.63;1.60;;;20.70;98.00;;;;;;5092878;28;20460;-66
2021/07/10 08:20:26;;;;;;;2.53;1.70;;;20.80;98.00;;;;;;5092745;28;20476;-66
2021/07/10 08:22:53;;;;;;;1.80;1.50;;;21.00;98.00;;;;;;5090815;28;20559;-67
2021/07/10 08:25:20;;;;;;;3.20;2.47;;;21.20;98.00;;;;;;5092193;28;20487;-68
2021/07/10 08:27:48;;;;;;;2.23;1.70;;;21.40;98.00;;;;;;5092858;28;20464;-67
2021/07/10 08:30:16;;;;;;;1.80;1.70;;;21.50;98.00;;;;;;5092713;28;20938;-67
2021/07/10 08:32:46;;;;;;;2.80;1.90;;;21.60;98.00;;;;;;5092801;28;20525;-67
2021/07/10 08:35:14;;;;;;;2.27;1.80;;;21.80;98.00;;;;;;5092642;28;20885;-69
2021/07/10 08:37:42;;;;;;;1.80;1.73;;;21.80;98.00;;;;;;5092879;28;20555;-67
2021/07/10 08:40:11;;;;;;;2.27;1.53;;;21.90;98.00;;;;;;5092533;28;20884;-67
2021/07/10 08:42:38;;;;;;;2.27;1.70;;;22.00;98.00;;;;;;5092496;28;20683;-67
2021/07/10 08:45:08;;;;;;;1.53;1.43;;;22.00;98.00;;;;;;5091289;28;20460;-67
2021/07/10 08:47:38;;;;;;;1.90;1.80;;;22.10;98.00;;;;;;5092381;28;20480;-66
2021/07/10 08:50:09;;;;;;;2.53;1.70;;;22.00;98.00;;;;;;5092294;28;20445;-68
2021/07/10 08:52:37;;;;;;;1.93;1.40;;;22.00;98.00;;;;;;5092504;28;20460;-68
2021/07/10 08:55:05;;;;;;;1.40;1.40;;;22.10;98.00;;;;;;5092182;28;21024;-67
2021/07/10 08:57:35;;;;;;;2.70;1.40;;;22.10;98.00;;;;;;5092212;28;20860;-68
2021/07/10 09:00:05;;;;;;;2.13;1.47;;;22.20;98.00;;;;;;5092223;28;20456;-69
2021/07/10 09:02:34;;;;;;;1.80;1.67;;;22.40;98.00;;;;;;5092260;28;20877;-70
2021/07/10 09:05:01;;;;;;;1.20;1.20;;;22.50;98.00;;;;;;5092195;28;20462;-71
2021/07/10 09:07:30;;;;;;;1.70;1.40;;;22.60;98.00;;;;;;5092066;28;20459;-71
2021/07/10 09:09:57;;;;;;;2.00;1.70;;;22.70;98.00;;;;;;5092176;28;20524;-71
2021/07/10 09:12:31;;;;;;;1.50;1.43;;;22.80;98.00;;;;;;5092527;28;20467;-71
2021/07/10 09:15:16;;;;;;;1.60;1.30;;;23.00;98.00;;;;;;5092725;28;20482;-71
2021/07/10 09:17:46;;;;;;;1.70;1.50;;;23.20;98.00;;;;;;5092488;28;20539;-72
2021/07/10 09:20:21;;;;;;;1.50;1.30;;;23.40;96.60;;;;;;5092232;28;20796;-73
2021/07/10 09:22:49;;;;;;;2.23;1.60;;;23.60;95.70;;;;;;5092493;28;20455;-72
2021/07/10 09:25:24;;;;;;;1.60;1.33;;;23.80;96.90;;;;;;5092384;28;20521;-71
2021/07/10 09:27:51;;;;;;;2.07;1.40;;;23.90;94.90;;;;;;5092269;28;20461;-70
2021/07/10 09:30:31;;;;;;;1.60;1.50;;;24.00;92.70;;;;;;5092263;28;20509;-71
2021/07/10 09:33:16;;;;;;;1.60;1.43;;;24.10;91.50;;;;;;5090371;28;20464;-71
2021/07/10 09:35:53;;;;;;;3.20;1.40;;;24.20;95.60;;;;;;5090304;28;20984;-71
2021/07/10 09:38:24;;;;;;;1.70;1.40;;;24.20;93.60;;;;;;5090816;28;20548;-71
2021/07/10 09:41:03;;;;;;;1.70;1.60;;;24.30;94.20;;;;;;5098552;28;20585;-71
2021/07/10 09:43:31;;;;;;;1.60;1.40;;;24.50;93.20;;;;;;5103715;28;20455;-71
2021/07/10 09:46:02;;;;;;;2.43;1.57;;;24.50;92.10;;;;;;5103808;28;20451;-69
2021/07/10 09:48:30;;;;;;;1.97;1.40;;;24.50;93.00;;;;;;5100911;28;20795;-72
2021/07/10 09:51:20;;;;;;;1.70;1.53;;;24.50;92.30;;;;;;5100599;28;20511;-71
2021/07/10 09:54:12;;;;;;;1.50;1.47;;;24.60;92.50;;;;;;5091747;28;20455;-71
2021/07/10 09:56:59;;;;;;;1.77;1.30;;;24.80;91.00;;;;;;5083291;28;20873;-70
2021/07/10 09:59:27;;;;;;;1.60;1.43;;;25.10;88.90;;;;;;5096257;28;20456;-70
2021/07/10 10:01:54;;;;;;;1.83;1.33;;;25.30;88.20;;;;;;5092949;28;20549;-71
2021/07/10 10:04:26;;;;;;;1.63;1.47;;;25.30;87.30;;;;;;5098891;28;20957;-71
2021/07/10 10:06:54;;;;;;;1.63;1.50;;;25.40;87.60;;;;;;5094894;28;20463;-72
2021/07/10 10:09:24;;;;;;;1.83;1.50;;;25.40;89.80;;;;;;5099072;28;20521;-72
2021/07/10 10:11:54;;;;;;;1.80;1.70;;;25.30;91.90;;;;;;5102358;28;20463;-73
2021/07/10 10:14:22;;;;;;;1.50;1.33;;;25.30;93.30;;;;;;5094665;28;20537;-69
2021/07/10 10:16:49;;;;;;;1.93;1.73;;;25.40;94.50;;;;;;5094464;28;20455;-72
2021/07/10 10:19:18;;;;;;;1.90;1.67;;;25.60;93.90;;;;;;5094728;28;21020;-71
2021/07/10 10:21:47;;;;;;;1.47;1.30;;;25.50;92.60;;;;;;5098645;28;20503;-72
2021/07/10 10:24:15;;;;;;;1.60;1.30;;;25.60;93.20;;;;;;5099738;28;20866;-72
2021/07/10 10:26:44;;;;;;;1.80;1.40;;;25.70;93.70;;;;;;5093760;28;20929;-72
2021/07/10 10:29:13;;;;;;;2.23;1.47;;;25.60;91.70;;;;;;5098933;28;20504;-72
2021/07/10 10:31:42;;;;;;;1.70;1.50;;;25.70;90.50;;;;;;5093649;28;20805;-72
2021/07/10 10:34:10;;;;;;;2.40;1.63;;;25.70;90.30;;;;;;5093883;28;20549;-72
2021/07/10 10:36:39;;;;;;;1.97;1.60;;;26.00;91.00;;;;;;5098581;28;20458;-71
2021/07/10 10:39:07;;;;;;;2.70;1.70;;;26.20;94.50;;;;;;5107124;28;20547;-72
2021/07/10 10:41:38;;;;;;;1.60;1.50;;;26.20;90.50;;;;;;5102552;28;20496;-72
2021/07/10 10:44:07;;;;;;;2.23;1.87;;;25.80;90.80;;;;;;5094319;28;20503;-72
2021/07/10 10:46:45;;;;;;;1.67;1.50;;;25.60;91.00;;;;;;5094528;28;20460;-72
2021/07/10 10:49:41;;;;;;;1.90;1.50;;;25.50;91.90;;;;;;5093649;28;20546;-73
2021/07/10 10:52:32;;;;;;;1.30;1.30;;;25.50;90.80;;;;;;5101651;28;20459;-72
2021/07/10 10:55:04;;;;;;;2.37;1.87;;;25.70;89.90;;;;;;5105064;28;20467;-72
2021/07/10 10:57:33;;;;;;;2.67;1.70;;;26.10;91.00;;;;;;5108120;28;20459;-72
2021/07/10 11:00:02;;;;;;;1.70;1.60;;;26.40;89.00;;;;;;5093749;28;20513;-71
2021/07/10 11:02:57;;;;;;;2.00;1.50;;;26.40;88.40;;;;;;5104949;28;20501;-72
2021/07/10 11:05:47;;;;;;;1.53;1.47;;;26.70;88.80;;;;;;5101657;28;20524;-73
2021/07/10 11:08:36;;;;;;;1.83;1.50;;;27.00;87.50;;;;;;5085595;28;20459;-73
2021/07/10 11:11:29;;;;;;;2.37;1.73;;;27.30;86.80;;;;;;5076035;28;20538;-72
2021/07/10 11:14:12;;;;;;;1.30;1.30;;;27.30;87.00;;;;;;5100686;28;20466;-71
2021/07/10 11:17:05;;;;;;;1.70;1.60;;;27.00;84.90;;;;;;5110476;28;20451;-71
2021/07/10 11:20:05;;;;;;;2.00;1.57;;;26.80;86.40;;;;;;5108876;28;20955;-73
2021/07/10 11:23:00;;;;;;;2.40;1.73;;;27.20;88.00;;;;;;5107472;28;20548;-72
2021/07/10 11:25:56;;;;;;;2.13;1.50;;;27.40;84.50;;;;;;5115392;28;20538;-74
2021/07/10 11:28:26;;;;;;;2.27;1.53;;;27.70;83.00;;;;;;5115121;28;20459;-75
2021/07/10 11:30:57;;;;;;;2.27;1.70;;;27.90;82.90;;;;;;5115043;28;20541;-76
2021/07/10 11:34:01;;;;;;;2.63;1.80;;;28.10;81.30;;;;;;5114966;28;20463;-74
2021/07/10 11:36:53;;;;;;;1.67;1.47;;;28.00;81.50;;;;;;5114417;28;20496;-75
2021/07/10 11:39:41;;;;;;;2.03;1.80;;;28.40;81.30;;;;;;5115094;28;20547;-75
2021/07/10 11:42:32;;;;;;;1.60;1.60;;;28.70;79.50;;;;;;5115145;28;20487;-75
2021/07/10 11:45:16;;;;;;;1.80;1.50;;;28.70;76.70;;;;;;5115019;28;20459;-76
2021/07/10 11:47:45;;;;;;;1.87;1.60;;;28.80;79.70;;;;;;5114964;28;20515;-75
2021/07/10 11:50:16;;;;;;;2.47;1.70;;;28.90;80.50;;;;;;5115029;28;20455;-76
2021/07/10 11:52:55;;;;;;;1.70;1.57;;;29.20;79.30;;;;;;5112928;28;20458;-76
2021/07/10 11:55:24;;;;;;;1.73;1.60;;;29.40;77.50;;;;;;5114865;28;20578;-75
2021/07/10 11:57:52;;;;;;;1.57;1.50;;;29.70;76.10;;;;;;5114232;28;20967;-76
2021/07/10 12:00:22;;;;;;;2.40;1.77;;;29.90;76.40;;;;;;5114477;28;20465;-75
2021/07/10 12:02:49;;;;;;;2.20;1.80;;;29.60;75.30;;;;;;5114435;28;20536;-75
2021/07/10 12:05:19;;;;;;;2.53;1.70;;;29.60;78.20;;;;;;5114354;28;20459;-76
2021/07/10 12:07:49;;;;;;;1.70;1.50;;;29.50;77.50;;;;;;5112871;28;20979;-75
2021/07/10 12:10:18;;;;;;;2.00;1.60;;;29.30;77.60;;;;;;5114237;28;20463;-75
2021/07/10 12:12:47;;;;;;;1.50;1.33;;;28.70;76.80;;;;;;5114300;28;20455;-78
2021/07/10 12:15:16;;;;;;;1.63;1.50;;;28.50;78.80;;;;;;5114099;28;20459;-76
2021/07/10 12:17:45;;;;;;;1.83;1.57;;;28.70;78.70;;;;;;5114259;28;20887;-76
2021/07/10 12:20:15;;;;;;;1.80;1.40;;;28.40;79.20;;;;;;5114207;28;20517;-76
2021/07/10 12:22:53;;;;;;;2.63;1.97;;;28.30;78.80;;;;;;5113721;28;21016;-75
2021/07/10 12:25:22;;;;;;;1.43;1.37;;;27.80;78.20;;;;;;5114035;28;20467;-76
2021/07/10 12:27:57;;;;;;;1.60;1.40;;;27.40;80.20;;;;;;5114164;28;20463;-76
2021/07/10 12:30:43;;;;;;;1.30;1.23;;;27.60;80.30;;;;;;5113976;28;20848;-76
2021/07/10 12:33:34;;;;;;;1.73;1.60;;;28.10;80.40;;;;;;5113940;28;20472;-76
2021/07/10 12:36:07;;;;;;;2.17;1.47;;;28.60;77.20;;;;;;5113750;28;20463;-75
2021/07/10 12:38:36;;;;;;;2.40;2.00;;;28.90;77.10;;;;;;5113932;28;20463;-76
2021/07/10 12:41:26;;;;;;;1.80;1.67;;;29.30;76.10;;;;;;5112616;28;20512;-75
2021/07/10 12:44:06;;;;;;;2.03;1.50;;;29.70;77.10;;;;;;5113803;28;20789;-76
2021/07/10 12:46:45;;;;;;;1.67;1.57;;;30.00;75.10;;;;;;5113624;28;20459;-76
2021/07/10 12:49:13;;;;;;;2.27;1.83;;;30.20;72.50;;;;;;5113736;28;20459;-76
2021/07/10 12:51:41;;;;;;;1.70;1.67;;;29.50;75.30;;;;;;5113449;28;20879;-75
2021/07/10 12:54:34;;;;;;;1.70;1.60;;;29.30;76.90;;;;;;5113586;28;20455;-77
2021/07/10 12:57:21;;;;;;;2.03;1.60;;;29.30;77.60;;;;;;5113501;28;20481;-76
2021/07/10 12:59:52;;;;;;;2.13;1.53;;;29.20;76.90;;;;;;5113344;28;20555;-76
2021/07/10 13:02:33;;;;;;;1.87;1.50;;;28.70;77.60;;;;;;5112575;28;20491;-77